sensor_id;sensor_type;location;lat;lon;timestamp;P1;durP1;ratioP1;P2;durP2;ratioP2
47659;SDS011;33403;43.608;1.458;2023-06-26T00:01:23;15.13;;;10.23;;
47659;SDS011;33403;43.608;1.458;2023-06-26T00:03:48;16.42;;;10.40;;
47659;SDS011;33403;43.608;1.458;2023-06-26T00:06:14;17.98;;;10.15;;
47659;SDS011;33403;43.608;1.458;2023-06-26T00:08:39;16.80;;;9.80;;
47659;SDS011;33403;43.608;1.458;2023-06-26T00:11:05;16.05;;;10.15;;
47659;SDS011;33403;43.608;1.458;2023-06-26T00:13:31;14.40;;;9.70;;
47659;SDS011;33403;43.608;1.458;2023-06-26T00:15:57;16.25;;;9.60;;
47659;SDS011;33403;43.608;1.458;2023-06-26T00:18:22;12.98;;;9.15;;
47659;SDS011;33403;43.608;1.458;2023-06-26T00:20:48;15.23;;;9.50;;
47659;SDS011;33403;43.608;1.458;2023-06-26T00:23:18;15.50;;;9.32;;
47659;SDS011;33403;43.608;1.458;2023-06-26T00:25:43;15.77;;;9.48;;
47659;SDS011;33403;43.608;1.458;2023-06-26T00:28:09;14.68;;;9.43;;
47659;SDS011;33403;43.608;1.458;2023-06-26T00:30:35;16.23;;;9.27;;
47659;SDS011;33403;43.608;1.458;2023-06-26T00:33:01;14.60;;;8.93;;
47659;SDS011;33403;43.608;1.458;2023-06-26T00:35:27;14.75;;;8.95;;
47659;SDS011;33403;43.608;1.458;2023-06-26T00:37:52;14.05;;;9.38;;
47659;SDS011;33403;43.608;1.458;2023-06-26T00:40:18;14.50;;;9.85;;
47659;SDS011;33403;43.608;1.458;2023-06-26T00:42:43;16.88;;;9.60;;
47659;SDS011;33403;43.608;1.458;2023-06-26T00:45:09;12.23;;;8.60;;
47659;SDS011;33403;43.608;1.458;2023-06-26T00:47:35;12.25;;;8.35;;
47659;SDS011;33403;43.608;1.458;2023-06-26T00:50:01;14.75;;;8.50;;
47659;SDS011;33403;43.608;1.458;2023-06-26T00:52:27;13.35;;;8.80;;
47659;SDS011;33403;43.608;1.458;2023-06-26T00:54:53;14.57;;;9.38;;
47659;SDS011;33403;43.608;1.458;2023-06-26T00:57:20;15.90;;;9.05;;
47659;SDS011;33403;43.608;1.458;2023-06-26T00:59:45;13.38;;;9.20;;
47659;SDS011;33403;43.608;1.458;2023-06-26T01:02:11;13.70;;;9.13;;
47659;SDS011;33403;43.608;1.458;2023-06-26T01:04:37;12.02;;;8.45;;
47659;SDS011;33403;43.608;1.458;2023-06-26T01:07:05;16.00;;;9.32;;
47659;SDS011;33403;43.608;1.458;2023-06-26T01:09:33;12.95;;;8.95;;
47659;SDS011;33403;43.608;1.458;2023-06-26T01:11:59;12.77;;;8.73;;
47659;SDS011;33403;43.608;1.458;2023-06-26T01:14:25;12.32;;;8.10;;
47659;SDS011;33403;43.608;1.458;2023-06-26T01:16:50;12.43;;;9.10;;
47659;SDS011;33403;43.608;1.458;2023-06-26T01:19:24;11.88;;;8.38;;
47659;SDS011;33403;43.608;1.458;2023-06-26T01:24:45;14.15;;;8.88;;
47659;SDS011;33403;43.608;1.458;2023-06-26T01:27:34;11.65;;;8.48;;
47659;SDS011;33403;43.608;1.458;2023-06-26T01:30:02;12.20;;;8.48;;
47659;SDS011;33403;43.608;1.458;2023-06-26T01:32:29;12.85;;;9.13;;
47659;SDS011;33403;43.608;1.458;2023-06-26T01:34:57;13.18;;;8.98;;
47659;SDS011;33403;43.608;1.458;2023-06-26T01:37:23;13.95;;;8.85;;
47659;SDS011;33403;43.608;1.458;2023-06-26T01:39:48;12.48;;;8.82;;
47659;SDS011;33403;43.608;1.458;2023-06-26T01:42:14;16.30;;;9.57;;
47659;SDS011;33403;43.608;1.458;2023-06-26T01:44:42;11.20;;;8.68;;
47659;SDS011;33403;43.608;1.458;2023-06-26T01:47:10;14.48;;;9.30;;
47659;SDS011;33403;43.608;1.458;2023-06-26T01:49:47;16.13;;;9.38;;
47659;SDS011;33403;43.608;1.458;2023-06-26T01:52:40;12.48;;;8.80;;
47659;SDS011;33403;43.608;1.458;2023-06-26T01:58:15;14.77;;;9.93;;
47659;SDS011;33403;43.608;1.458;2023-06-26T02:00:45;13.75;;;9.02;;
47659;SDS011;33403;43.608;1.458;2023-06-26T02:03:11;15.35;;;9.25;;
47659;SDS011;33403;43.608;1.458;2023-06-26T02:05:37;14.07;;;9.45;;
47659;SDS011;33403;43.608;1.458;2023-06-26T02:08:02;11.88;;;8.98;;
47659;SDS011;33403;43.608;1.458;2023-06-26T02:10:28;13.85;;;8.98;;
47659;SDS011;33403;43.608;1.458;2023-06-26T02:12:54;15.40;;;9.13;;
47659;SDS011;33403;43.608;1.458;2023-06-26T02:15:20;16.70;;;9.65;;
47659;SDS011;33403;43.608;1.458;2023-06-26T02:17:46;13.32;;;9.68;;
47659;SDS011;33403;43.608;1.458;2023-06-26T02:20:13;15.23;;;9.18;;
47659;SDS011;33403;43.608;1.458;2023-06-26T02:22:42;14.85;;;8.80;;
47659;SDS011;33403;43.608;1.458;2023-06-26T02:25:08;15.40;;;9.32;;
47659;SDS011;33403;43.608;1.458;2023-06-26T02:27:35;17.48;;;9.60;;
47659;SDS011;33403;43.608;1.458;2023-06-26T02:30:00;16.02;;;9.75;;
47659;SDS011;33403;43.608;1.458;2023-06-26T02:32:26;12.38;;;8.80;;
47659;SDS011;33403;43.608;1.458;2023-06-26T02:34:52;14.80;;;9.32;;
47659;SDS011;33403;43.608;1.458;2023-06-26T02:37:18;14.73;;;9.40;;
47659;SDS011;33403;43.608;1.458;2023-06-26T02:39:44;12.65;;;8.93;;
47659;SDS011;33403;43.608;1.458;2023-06-26T02:42:10;14.88;;;9.25;;
47659;SDS011;33403;43.608;1.458;2023-06-26T02:44:35;18.35;;;9.50;;
47659;SDS011;33403;43.608;1.458;2023-06-26T02:47:01;16.35;;;9.70;;
47659;SDS011;33403;43.608;1.458;2023-06-26T02:49:27;13.73;;;9.07;;
47659;SDS011;33403;43.608;1.458;2023-06-26T02:51:52;15.38;;;10.10;;
47659;SDS011;33403;43.608;1.458;2023-06-26T02:54:18;15.23;;;9.38;;
47659;SDS011;33403;43.608;1.458;2023-06-26T02:56:43;17.92;;;10.10;;
47659;SDS011;33403;43.608;1.458;2023-06-26T02:59:09;13.85;;;10.00;;
47659;SDS011;33403;43.608;1.458;2023-06-26T03:01:35;15.23;;;10.00;;
47659;SDS011;33403;43.608;1.458;2023-06-26T03:04:00;16.48;;;9.90;;
47659;SDS011;33403;43.608;1.458;2023-06-26T03:06:26;14.20;;;9.75;;
47659;SDS011;33403;43.608;1.458;2023-06-26T03:08:52;13.35;;;9.90;;
47659;SDS011;33403;43.608;1.458;2023-06-26T03:11:18;16.45;;;10.05;;
47659;SDS011;33403;43.608;1.458;2023-06-26T03:13:44;14.88;;;9.57;;
47659;SDS011;33403;43.608;1.458;2023-06-26T03:16:10;14.52;;;9.32;;
47659;SDS011;33403;43.608;1.458;2023-06-26T03:18:35;18.08;;;10.55;;
47659;SDS011;33403;43.608;1.458;2023-06-26T03:21:01;16.02;;;9.93;;
47659;SDS011;33403;43.608;1.458;2023-06-26T03:23:27;18.08;;;10.60;;
47659;SDS011;33403;43.608;1.458;2023-06-26T03:25:53;16.95;;;9.70;;
47659;SDS011;33403;43.608;1.458;2023-06-26T03:28:19;14.38;;;9.80;;
47659;SDS011;33403;43.608;1.458;2023-06-26T03:30:44;14.13;;;9.55;;
47659;SDS011;33403;43.608;1.458;2023-06-26T03:33:10;15.73;;;9.68;;
47659;SDS011;33403;43.608;1.458;2023-06-26T03:35:36;15.65;;;9.90;;
47659;SDS011;33403;43.608;1.458;2023-06-26T03:38:03;17.83;;;10.45;;
47659;SDS011;33403;43.608;1.458;2023-06-26T03:40:29;18.27;;;10.43;;
47659;SDS011;33403;43.608;1.458;2023-06-26T03:42:55;17.83;;;10.15;;
47659;SDS011;33403;43.608;1.458;2023-06-26T03:45:20;15.45;;;9.13;;
47659;SDS011;33403;43.608;1.458;2023-06-26T03:47:46;15.73;;;10.07;;
47659;SDS011;33403;43.608;1.458;2023-06-26T03:50:14;17.30;;;9.68;;
47659;SDS011;33403;43.608;1.458;2023-06-26T03:52:40;18.98;;;9.85;;
47659;SDS011;33403;43.608;1.458;2023-06-26T03:55:06;16.67;;;10.35;;
47659;SDS011;33403;43.608;1.458;2023-06-26T03:57:33;18.48;;;9.70;;
47659;SDS011;33403;43.608;1.458;2023-06-26T03:59:58;15.20;;;9.98;;
47659;SDS011;33403;43.608;1.458;2023-06-26T04:02:24;15.82;;;9.55;;
47659;SDS011;33403;43.608;1.458;2023-06-26T04:04:50;16.63;;;10.70;;
47659;SDS011;33403;43.608;1.458;2023-06-26T04:07:16;19.20;;;9.88;;
47659;SDS011;33403;43.608;1.458;2023-06-26T04:09:42;22.23;;;10.02;;
47659;SDS011;33403;43.608;1.458;2023-06-26T04:12:08;15.52;;;9.55;;
47659;SDS011;33403;43.608;1.458;2023-06-26T04:14:34;17.55;;;9.75;;
47659;SDS011;33403;43.608;1.458;2023-06-26T04:17:00;16.65;;;9.77;;
47659;SDS011;33403;43.608;1.458;2023-06-26T04:19:28;15.25;;;9.55;;
47659;SDS011;33403;43.608;1.458;2023-06-26T04:21:55;13.85;;;9.07;;
47659;SDS011;33403;43.608;1.458;2023-06-26T04:24:21;14.60;;;9.07;;
47659;SDS011;33403;43.608;1.458;2023-06-26T04:26:47;17.48;;;9.65;;
47659;SDS011;33403;43.608;1.458;2023-06-26T04:29:13;15.02;;;9.32;;
47659;SDS011;33403;43.608;1.458;2023-06-26T04:31:38;13.10;;;9.43;;
47659;SDS011;33403;43.608;1.458;2023-06-26T04:34:05;15.45;;;9.30;;
47659;SDS011;33403;43.608;1.458;2023-06-26T04:36:30;14.25;;;9.57;;
47659;SDS011;33403;43.608;1.458;2023-06-26T04:38:56;16.92;;;9.95;;
47659;SDS011;33403;43.608;1.458;2023-06-26T04:41:23;14.23;;;9.52;;
47659;SDS011;33403;43.608;1.458;2023-06-26T04:43:49;15.13;;;9.48;;
47659;SDS011;33403;43.608;1.458;2023-06-26T04:46:15;15.90;;;9.25;;
47659;SDS011;33403;43.608;1.458;2023-06-26T04:48:40;13.90;;;9.40;;
47659;SDS011;33403;43.608;1.458;2023-06-26T04:51:06;13.25;;;9.40;;
47659;SDS011;33403;43.608;1.458;2023-06-26T04:53:32;15.32;;;9.55;;
47659;SDS011;33403;43.608;1.458;2023-06-26T04:55:57;13.82;;;9.30;;
47659;SDS011;33403;43.608;1.458;2023-06-26T04:58:23;14.90;;;9.10;;
47659;SDS011;33403;43.608;1.458;2023-06-26T05:00:49;12.82;;;9.50;;
47659;SDS011;33403;43.608;1.458;2023-06-26T05:03:18;14.43;;;8.65;;
47659;SDS011;33403;43.608;1.458;2023-06-26T05:05:43;13.35;;;9.00;;
47659;SDS011;33403;43.608;1.458;2023-06-26T05:08:16;15.75;;;8.82;;
47659;SDS011;33403;43.608;1.458;2023-06-26T05:10:43;12.57;;;8.18;;
47659;SDS011;33403;43.608;1.458;2023-06-26T05:13:09;12.23;;;7.93;;
47659;SDS011;33403;43.608;1.458;2023-06-26T05:15:36;13.93;;;7.72;;
47659;SDS011;33403;43.608;1.458;2023-06-26T05:18:02;12.60;;;8.18;;
47659;SDS011;33403;43.608;1.458;2023-06-26T05:20:28;14.07;;;8.40;;
47659;SDS011;33403;43.608;1.458;2023-06-26T05:22:53;15.25;;;8.05;;
47659;SDS011;33403;43.608;1.458;2023-06-26T05:25:19;13.68;;;7.85;;
47659;SDS011;33403;43.608;1.458;2023-06-26T05:27:46;12.85;;;7.40;;
47659;SDS011;33403;43.608;1.458;2023-06-26T05:30:13;13.60;;;7.32;;
47659;SDS011;33403;43.608;1.458;2023-06-26T05:32:39;10.35;;;7.50;;
47659;SDS011;33403;43.608;1.458;2023-06-26T05:35:05;14.32;;;7.75;;
47659;SDS011;33403;43.608;1.458;2023-06-26T05:37:32;11.77;;;7.30;;
47659;SDS011;33403;43.608;1.458;2023-06-26T05:39:59;11.85;;;7.72;;
47659;SDS011;33403;43.608;1.458;2023-06-26T05:42:28;14.30;;;7.60;;
47659;SDS011;33403;43.608;1.458;2023-06-26T05:44:55;11.20;;;7.55;;
47659;SDS011;33403;43.608;1.458;2023-06-26T05:47:21;11.43;;;7.38;;
47659;SDS011;33403;43.608;1.458;2023-06-26T05:49:46;14.00;;;7.63;;
47659;SDS011;33403;43.608;1.458;2023-06-26T05:52:12;12.25;;;7.50;;
47659;SDS011;33403;43.608;1.458;2023-06-26T05:54:38;14.23;;;7.43;;
47659;SDS011;33403;43.608;1.458;2023-06-26T05:57:04;14.02;;;7.43;;
47659;SDS011;33403;43.608;1.458;2023-06-26T05:59:31;11.15;;;7.28;;
47659;SDS011;33403;43.608;1.458;2023-06-26T06:01:57;12.65;;;7.18;;
47659;SDS011;33403;43.608;1.458;2023-06-26T06:04:22;14.80;;;7.65;;
47659;SDS011;33403;43.608;1.458;2023-06-26T06:06:48;13.80;;;7.90;;
47659;SDS011;33403;43.608;1.458;2023-06-26T06:09:14;14.52;;;8.27;;
47659;SDS011;33403;43.608;1.458;2023-06-26T06:11:40;12.02;;;7.65;;
47659;SDS011;33403;43.608;1.458;2023-06-26T06:14:06;13.40;;;7.75;;
47659;SDS011;33403;43.608;1.458;2023-06-26T06:16:31;10.63;;;7.47;;
47659;SDS011;33403;43.608;1.458;2023-06-26T06:18:57;12.98;;;7.78;;
47659;SDS011;33403;43.608;1.458;2023-06-26T06:21:22;13.82;;;7.57;;
47659;SDS011;33403;43.608;1.458;2023-06-26T06:23:48;13.55;;;7.57;;
47659;SDS011;33403;43.608;1.458;2023-06-26T06:26:14;12.95;;;7.82;;
47659;SDS011;33403;43.608;1.458;2023-06-26T06:28:39;16.05;;;7.55;;
47659;SDS011;33403;43.608;1.458;2023-06-26T06:31:05;11.52;;;7.10;;
47659;SDS011;33403;43.608;1.458;2023-06-26T06:33:31;15.02;;;7.80;;
47659;SDS011;33403;43.608;1.458;2023-06-26T06:35:56;15.23;;;7.43;;
47659;SDS011;33403;43.608;1.458;2023-06-26T06:38:22;12.45;;;7.53;;
47659;SDS011;33403;43.608;1.458;2023-06-26T06:40:48;13.73;;;7.50;;
47659;SDS011;33403;43.608;1.458;2023-06-26T06:43:14;10.93;;;7.28;;
47659;SDS011;33403;43.608;1.458;2023-06-26T06:45:39;13.25;;;7.78;;
47659;SDS011;33403;43.608;1.458;2023-06-26T06:48:05;13.52;;;6.97;;
47659;SDS011;33403;43.608;1.458;2023-06-26T06:50:31;15.00;;;7.50;;
47659;SDS011;33403;43.608;1.458;2023-06-26T06:52:56;10.70;;;7.25;;
47659;SDS011;33403;43.608;1.458;2023-06-26T06:55:22;18.50;;;7.25;;
47659;SDS011;33403;43.608;1.458;2023-06-26T06:57:48;17.15;;;7.30;;
47659;SDS011;33403;43.608;1.458;2023-06-26T07:00:15;15.65;;;7.03;;
47659;SDS011;33403;43.608;1.458;2023-06-26T07:02:45;12.73;;;6.75;;
47659;SDS011;33403;43.608;1.458;2023-06-26T07:05:11;10.63;;;6.28;;
47659;SDS011;33403;43.608;1.458;2023-06-26T07:07:37;7.78;;;6.03;;
47659;SDS011;33403;43.608;1.458;2023-06-26T07:10:08;10.25;;;6.40;;
47659;SDS011;33403;43.608;1.458;2023-06-26T07:12:35;10.88;;;6.10;;
47659;SDS011;33403;43.608;1.458;2023-06-26T07:15:01;9.18;;;5.93;;
47659;SDS011;33403;43.608;1.458;2023-06-26T07:17:29;8.65;;;5.53;;
47659;SDS011;33403;43.608;1.458;2023-06-26T07:19:55;8.70;;;5.53;;
47659;SDS011;33403;43.608;1.458;2023-06-26T07:22:21;9.65;;;5.50;;
47659;SDS011;33403;43.608;1.458;2023-06-26T07:24:47;9.40;;;5.90;;
47659;SDS011;33403;43.608;1.458;2023-06-26T07:27:16;8.82;;;5.50;;
47659;SDS011;33403;43.608;1.458;2023-06-26T07:29:43;9.48;;;5.80;;
47659;SDS011;33403;43.608;1.458;2023-06-26T07:32:09;12.98;;;5.95;;
47659;SDS011;33403;43.608;1.458;2023-06-26T07:34:35;9.18;;;5.57;;
47659;SDS011;33403;43.608;1.458;2023-06-26T07:37:01;9.27;;;5.15;;
47659;SDS011;33403;43.608;1.458;2023-06-26T07:39:26;9.52;;;5.82;;
47659;SDS011;33403;43.608;1.458;2023-06-26T07:41:52;7.97;;;5.28;;
47659;SDS011;33403;43.608;1.458;2023-06-26T07:44:18;12.35;;;5.90;;
47659;SDS011;33403;43.608;1.458;2023-06-26T07:46:44;9.63;;;4.95;;
47659;SDS011;33403;43.608;1.458;2023-06-26T07:49:10;8.52;;;5.22;;
47659;SDS011;33403;43.608;1.458;2023-06-26T07:51:36;8.40;;;5.20;;
47659;SDS011;33403;43.608;1.458;2023-06-26T07:54:03;7.35;;;5.20;;
47659;SDS011;33403;43.608;1.458;2023-06-26T07:56:28;9.30;;;5.10;;
47659;SDS011;33403;43.608;1.458;2023-06-26T07:58:54;10.05;;;5.53;;
47659;SDS011;33403;43.608;1.458;2023-06-26T08:01:22;9.23;;;5.47;;
47659;SDS011;33403;43.608;1.458;2023-06-26T08:03:48;9.60;;;5.50;;
47659;SDS011;33403;43.608;1.458;2023-06-26T08:06:14;9.95;;;5.35;;
47659;SDS011;33403;43.608;1.458;2023-06-26T08:08:40;10.57;;;5.88;;
47659;SDS011;33403;43.608;1.458;2023-06-26T08:11:05;8.73;;;5.40;;
47659;SDS011;33403;43.608;1.458;2023-06-26T08:13:31;9.38;;;5.40;;
47659;SDS011;33403;43.608;1.458;2023-06-26T08:15:57;12.55;;;5.63;;
47659;SDS011;33403;43.608;1.458;2023-06-26T08:18:22;9.18;;;5.68;;
47659;SDS011;33403;43.608;1.458;2023-06-26T08:20:48;10.25;;;5.45;;
47659;SDS011;33403;43.608;1.458;2023-06-26T08:23:14;9.93;;;5.78;;
47659;SDS011;33403;43.608;1.458;2023-06-26T08:25:39;10.30;;;5.38;;
47659;SDS011;33403;43.608;1.458;2023-06-26T08:28:05;10.98;;;5.05;;
47659;SDS011;33403;43.608;1.458;2023-06-26T08:30:31;8.32;;;5.07;;
47659;SDS011;33403;43.608;1.458;2023-06-26T08:32:57;6.97;;;4.75;;
47659;SDS011;33403;43.608;1.458;2023-06-26T08:35:23;7.72;;;4.97;;
47659;SDS011;33403;43.608;1.458;2023-06-26T08:37:49;9.25;;;5.70;;
47659;SDS011;33403;43.608;1.458;2023-06-26T08:40:18;9.88;;;5.78;;
47659;SDS011;33403;43.608;1.458;2023-06-26T08:42:44;6.53;;;4.82;;
47659;SDS011;33403;43.608;1.458;2023-06-26T08:45:10;8.85;;;5.30;;
47659;SDS011;33403;43.608;1.458;2023-06-26T08:47:36;8.77;;;4.97;;
47659;SDS011;33403;43.608;1.458;2023-06-26T08:55:24;7.95;;;5.18;;
47659;SDS011;33403;43.608;1.458;2023-06-26T08:57:52;7.38;;;5.10;;
47659;SDS011;33403;43.608;1.458;2023-06-26T09:00:18;7.45;;;5.38;;
47659;SDS011;33403;43.608;1.458;2023-06-26T09:02:45;8.75;;;5.35;;
47659;SDS011;33403;43.608;1.458;2023-06-26T09:05:10;9.75;;;5.20;;
47659;SDS011;33403;43.608;1.458;2023-06-26T09:07:36;6.60;;;4.82;;
47659;SDS011;33403;43.608;1.458;2023-06-26T09:10:02;9.82;;;5.30;;
47659;SDS011;33403;43.608;1.458;2023-06-26T09:12:28;7.20;;;5.20;;
47659;SDS011;33403;43.608;1.458;2023-06-26T09:14:56;7.25;;;5.07;;
47659;SDS011;33403;43.608;1.458;2023-06-26T09:17:27;9.75;;;5.32;;
47659;SDS011;33403;43.608;1.458;2023-06-26T09:19:55;8.48;;;5.13;;
47659;SDS011;33403;43.608;1.458;2023-06-26T09:22:20;8.32;;;5.28;;
47659;SDS011;33403;43.608;1.458;2023-06-26T09:24:47;7.18;;;4.85;;
47659;SDS011;33403;43.608;1.458;2023-06-26T09:27:13;7.45;;;4.80;;
47659;SDS011;33403;43.608;1.458;2023-06-26T09:29:39;11.45;;;5.15;;
47659;SDS011;33403;43.608;1.458;2023-06-26T09:32:05;8.95;;;5.28;;
47659;SDS011;33403;43.608;1.458;2023-06-26T09:34:33;8.82;;;5.47;;
47659;SDS011;33403;43.608;1.458;2023-06-26T09:36:59;8.98;;;5.13;;
47659;SDS011;33403;43.608;1.458;2023-06-26T09:39:29;8.98;;;5.25;;
47659;SDS011;33403;43.608;1.458;2023-06-26T09:41:55;8.65;;;5.20;;
47659;SDS011;33403;43.608;1.458;2023-06-26T09:44:22;8.50;;;5.28;;
47659;SDS011;33403;43.608;1.458;2023-06-26T09:46:48;8.30;;;5.07;;
47659;SDS011;33403;43.608;1.458;2023-06-26T09:49:13;6.82;;;5.00;;
47659;SDS011;33403;43.608;1.458;2023-06-26T09:51:40;7.18;;;4.80;;
47659;SDS011;33403;43.608;1.458;2023-06-26T09:54:07;10.43;;;4.97;;
47659;SDS011;33403;43.608;1.458;2023-06-26T09:56:34;8.85;;;5.10;;
47659;SDS011;33403;43.608;1.458;2023-06-26T09:59:01;8.05;;;5.00;;
47659;SDS011;33403;43.608;1.458;2023-06-26T10:01:29;8.63;;;4.80;;
47659;SDS011;33403;43.608;1.458;2023-06-26T10:03:55;7.25;;;5.18;;
47659;SDS011;33403;43.608;1.458;2023-06-26T10:06:27;9.48;;;4.85;;
47659;SDS011;33403;43.608;1.458;2023-06-26T10:08:56;7.97;;;5.15;;
47659;SDS011;33403;43.608;1.458;2023-06-26T10:11:24;8.35;;;5.40;;
47659;SDS011;33403;43.608;1.458;2023-06-26T10:13:52;9.30;;;5.22;;
47659;SDS011;33403;43.608;1.458;2023-06-26T10:16:22;9.00;;;5.00;;
47659;SDS011;33403;43.608;1.458;2023-06-26T10:18:52;8.20;;;5.32;;
47659;SDS011;33403;43.608;1.458;2023-06-26T10:21:21;7.25;;;5.00;;
47659;SDS011;33403;43.608;1.458;2023-06-26T10:23:49;6.30;;;4.85;;
47659;SDS011;33403;43.608;1.458;2023-06-26T10:26:16;10.98;;;5.57;;
47659;SDS011;33403;43.608;1.458;2023-06-26T10:28:45;8.73;;;5.40;;
47659;SDS011;33403;43.608;1.458;2023-06-26T10:31:16;12.35;;;5.75;;
47659;SDS011;33403;43.608;1.458;2023-06-26T10:33:44;6.50;;;4.82;;
47659;SDS011;33403;43.608;1.458;2023-06-26T10:36:14;9.70;;;4.93;;
47659;SDS011;33403;43.608;1.458;2023-06-26T10:38:50;9.95;;;5.35;;
47659;SDS011;33403;43.608;1.458;2023-06-26T10:41:25;8.45;;;5.30;;
47659;SDS011;33403;43.608;1.458;2023-06-26T10:43:51;9.73;;;5.20;;
47659;SDS011;33403;43.608;1.458;2023-06-26T10:46:47;10.27;;;5.70;;
47659;SDS011;33403;43.608;1.458;2023-06-26T10:49:15;7.43;;;5.40;;
47659;SDS011;33403;43.608;1.458;2023-06-26T10:51:50;7.88;;;5.32;;
47659;SDS011;33403;43.608;1.458;2023-06-26T10:54:16;6.20;;;4.97;;
47659;SDS011;33403;43.608;1.458;2023-06-26T10:56:47;7.13;;;5.00;;
47659;SDS011;33403;43.608;1.458;2023-06-26T11:01:44;8.50;;;5.47;;
47659;SDS011;33403;43.608;1.458;2023-06-26T11:04:12;7.88;;;5.40;;
47659;SDS011;33403;43.608;1.458;2023-06-26T11:06:41;8.60;;;5.13;;
47659;SDS011;33403;43.608;1.458;2023-06-26T11:09:14;8.05;;;5.50;;
47659;SDS011;33403;43.608;1.458;2023-06-26T11:14:19;10.18;;;5.65;;
47659;SDS011;33403;43.608;1.458;2023-06-26T11:16:45;8.68;;;5.50;;
47659;SDS011;33403;43.608;1.458;2023-06-26T11:19:12;8.13;;;4.97;;
47659;SDS011;33403;43.608;1.458;2023-06-26T11:21:39;8.55;;;5.10;;
47659;SDS011;33403;43.608;1.458;2023-06-26T11:24:08;7.57;;;4.90;;
47659;SDS011;33403;43.608;1.458;2023-06-26T11:26:42;8.13;;;4.63;;
47659;SDS011;33403;43.608;1.458;2023-06-26T11:29:08;7.47;;;4.78;;
47659;SDS011;33403;43.608;1.458;2023-06-26T11:31:38;7.90;;;4.50;;
47659;SDS011;33403;43.608;1.458;2023-06-26T11:34:05;6.32;;;4.40;;
47659;SDS011;33403;43.608;1.458;2023-06-26T11:36:37;6.35;;;4.28;;
47659;SDS011;33403;43.608;1.458;2023-06-26T11:39:04;6.00;;;4.50;;
47659;SDS011;33403;43.608;1.458;2023-06-26T11:41:31;5.45;;;4.07;;
47659;SDS011;33403;43.608;1.458;2023-06-26T11:46:37;8.30;;;5.07;;
47659;SDS011;33403;43.608;1.458;2023-06-26T11:49:03;6.75;;;4.85;;
47659;SDS011;33403;43.608;1.458;2023-06-26T11:51:29;6.07;;;4.38;;
47659;SDS011;33403;43.608;1.458;2023-06-26T11:53:55;7.57;;;5.10;;
47659;SDS011;33403;43.608;1.458;2023-06-26T11:56:21;9.32;;;5.25;;
47659;SDS011;33403;43.608;1.458;2023-06-26T11:58:57;6.35;;;4.95;;
47659;SDS011;33403;43.608;1.458;2023-06-26T12:01:34;7.63;;;5.20;;
47659;SDS011;33403;43.608;1.458;2023-06-26T12:04:08;7.20;;;4.82;;
47659;SDS011;33403;43.608;1.458;2023-06-26T12:06:37;6.05;;;4.55;;
47659;SDS011;33403;43.608;1.458;2023-06-26T12:09:06;8.80;;;4.93;;
47659;SDS011;33403;43.608;1.458;2023-06-26T12:11:35;6.45;;;4.50;;
47659;SDS011;33403;43.608;1.458;2023-06-26T12:14:02;6.45;;;4.72;;
47659;SDS011;33403;43.608;1.458;2023-06-26T12:16:30;5.88;;;4.50;;
47659;SDS011;33403;43.608;1.458;2023-06-26T12:18:58;7.40;;;4.82;;
47659;SDS011;33403;43.608;1.458;2023-06-26T12:24:02;6.57;;;4.50;;
47659;SDS011;33403;43.608;1.458;2023-06-26T12:26:32;6.80;;;4.85;;
47659;SDS011;33403;43.608;1.458;2023-06-26T12:29:07;8.52;;;5.28;;
47659;SDS011;33403;43.608;1.458;2023-06-26T12:31:40;6.72;;;4.85;;
47659;SDS011;33403;43.608;1.458;2023-06-26T12:34:11;6.80;;;4.72;;
47659;SDS011;33403;43.608;1.458;2023-06-26T12:36:42;6.10;;;5.03;;
47659;SDS011;33403;43.608;1.458;2023-06-26T12:39:09;6.55;;;5.05;;
47659;SDS011;33403;43.608;1.458;2023-06-26T12:41:46;7.65;;;5.10;;
47659;SDS011;33403;43.608;1.458;2023-06-26T12:44:25;5.85;;;5.20;;
47659;SDS011;33403;43.608;1.458;2023-06-26T12:46:56;7.53;;;5.15;;
47659;SDS011;33403;43.608;1.458;2023-06-26T12:49:44;8.82;;;5.10;;
47659;SDS011;33403;43.608;1.458;2023-06-26T12:52:16;8.05;;;5.15;;
47659;SDS011;33403;43.608;1.458;2023-06-26T12:54:44;7.25;;;5.25;;
47659;SDS011;33403;43.608;1.458;2023-06-26T12:57:11;9.85;;;5.10;;
47659;SDS011;33403;43.608;1.458;2023-06-26T12:59:41;9.02;;;5.45;;
47659;SDS011;33403;43.608;1.458;2023-06-26T13:02:07;6.47;;;4.95;;
47659;SDS011;33403;43.608;1.458;2023-06-26T13:04:34;6.40;;;4.70;;
47659;SDS011;33403;43.608;1.458;2023-06-26T13:07:00;7.40;;;5.00;;
47659;SDS011;33403;43.608;1.458;2023-06-26T13:09:26;7.60;;;4.82;;
47659;SDS011;33403;43.608;1.458;2023-06-26T13:11:58;7.50;;;5.03;;
47659;SDS011;33403;43.608;1.458;2023-06-26T13:14:24;6.25;;;4.78;;
47659;SDS011;33403;43.608;1.458;2023-06-26T13:16:50;6.25;;;4.75;;
47659;SDS011;33403;43.608;1.458;2023-06-26T13:19:15;8.35;;;5.00;;
47659;SDS011;33403;43.608;1.458;2023-06-26T13:21:41;5.93;;;4.65;;
47659;SDS011;33403;43.608;1.458;2023-06-26T13:24:07;8.13;;;4.97;;
47659;SDS011;33403;43.608;1.458;2023-06-26T13:26:34;6.22;;;4.50;;
47659;SDS011;33403;43.608;1.458;2023-06-26T13:29:00;6.85;;;5.03;;
47659;SDS011;33403;43.608;1.458;2023-06-26T13:31:26;6.43;;;4.78;;
47659;SDS011;33403;43.608;1.458;2023-06-26T13:33:52;7.78;;;4.97;;
47659;SDS011;33403;43.608;1.458;2023-06-26T13:36:18;5.90;;;4.38;;
47659;SDS011;33403;43.608;1.458;2023-06-26T13:38:44;7.30;;;5.05;;
47659;SDS011;33403;43.608;1.458;2023-06-26T13:41:10;6.97;;;5.18;;
47659;SDS011;33403;43.608;1.458;2023-06-26T13:43:36;6.93;;;5.10;;
47659;SDS011;33403;43.608;1.458;2023-06-26T13:46:02;10.32;;;5.43;;
47659;SDS011;33403;43.608;1.458;2023-06-26T13:48:28;7.80;;;4.80;;
47659;SDS011;33403;43.608;1.458;2023-06-26T13:50:54;6.68;;;4.63;;
47659;SDS011;33403;43.608;1.458;2023-06-26T13:53:21;6.05;;;4.38;;
47659;SDS011;33403;43.608;1.458;2023-06-26T13:55:47;6.40;;;4.57;;
47659;SDS011;33403;43.608;1.458;2023-06-26T13:58:13;6.47;;;4.78;;
47659;SDS011;33403;43.608;1.458;2023-06-26T14:00:39;7.50;;;4.50;;
47659;SDS011;33403;43.608;1.458;2023-06-26T14:03:06;7.40;;;4.70;;
47659;SDS011;33403;43.608;1.458;2023-06-26T14:05:32;5.63;;;4.35;;
47659;SDS011;33403;43.608;1.458;2023-06-26T14:07:58;5.80;;;4.30;;
47659;SDS011;33403;43.608;1.458;2023-06-26T14:10:24;5.38;;;4.30;;
47659;SDS011;33403;43.608;1.458;2023-06-26T14:12:50;6.97;;;4.40;;
47659;SDS011;33403;43.608;1.458;2023-06-26T14:15:16;7.40;;;4.82;;
47659;SDS011;33403;43.608;1.458;2023-06-26T14:17:41;6.75;;;4.68;;
47659;SDS011;33403;43.608;1.458;2023-06-26T14:20:08;7.40;;;4.85;;
47659;SDS011;33403;43.608;1.458;2023-06-26T14:22:37;5.80;;;4.50;;
47659;SDS011;33403;43.608;1.458;2023-06-26T14:25:07;6.30;;;3.95;;
47659;SDS011;33403;43.608;1.458;2023-06-26T14:27:33;5.18;;;4.32;;
47659;SDS011;33403;43.608;1.458;2023-06-26T14:29:59;6.40;;;4.30;;
47659;SDS011;33403;43.608;1.458;2023-06-26T14:32:25;5.75;;;4.28;;
47659;SDS011;33403;43.608;1.458;2023-06-26T14:34:51;7.13;;;4.20;;
47659;SDS011;33403;43.608;1.458;2023-06-26T14:37:17;6.65;;;4.50;;
47659;SDS011;33403;43.608;1.458;2023-06-26T14:39:44;6.63;;;4.00;;
47659;SDS011;33403;43.608;1.458;2023-06-26T14:42:10;5.47;;;3.80;;
47659;SDS011;33403;43.608;1.458;2023-06-26T14:44:36;5.57;;;4.30;;
47659;SDS011;33403;43.608;1.458;2023-06-26T14:47:02;5.05;;;4.10;;
47659;SDS011;33403;43.608;1.458;2023-06-26T14:49:27;5.50;;;4.00;;
47659;SDS011;33403;43.608;1.458;2023-06-26T14:51:53;6.13;;;4.22;;
47659;SDS011;33403;43.608;1.458;2023-06-26T14:54:19;4.85;;;3.97;;
47659;SDS011;33403;43.608;1.458;2023-06-26T14:56:44;6.15;;;4.07;;
47659;SDS011;33403;43.608;1.458;2023-06-26T14:59:11;6.05;;;4.35;;
47659;SDS011;33403;43.608;1.458;2023-06-26T15:01:37;9.77;;;4.50;;